Appleton, Maine
Current Conditions -  °F | °C
As of 1:55 PM on Friday 31 Oct 2014 (Local Time) from KRKD Reporting Station
Clear Clear  
Wind Chill: 46°   Ceiling: Unl
Heat Index: 48°   Visibility: 10mi
Dew Point: 30°   Wind: 6mph
Humidity: 50%   Direction: 50°NE
Pressure: 30.01"   Gusts: NA
Location:  44.2596°N, 69.2573°W
Report Text: KRKD 311755Z AUTO 05005KT 10SM CLR 09/M01 A3001 RMK AO1 10100 20010 57014
Loading
Personal Weather Stations






























Interactive Weather Map New forecast layout! Learn more

10-Day Weather Forecast

Advertisements
Track Severe Weather on mobile